Estación Meteorológica Peña el Pijo (Robertgarden) [ 02/03/23 03:47:31 CET ]

Fecha Hora Presion(HPa) Temp (°C) Humedad % Rocio (°C) Viento ( m/s) Direccion Lluvia 1Hora(mm) Lluvia 24H(mm) LLuvia Total(mm)
2012-Feb-11 01:01:15 1006.300 -3.2 64 -9.1         153.32
2012-Feb-11 02:05:18 1006.400 -3.5 66 -9.0         153.32
2012-Feb-11 03:01:14 1006.400 -4.1 67 -9.4         153.32
2012-Feb-11 04:01:16 1006.000 -5.6 69 -10.4         153.32
2012-Feb-11 05:01:12 1006.200 -6.4 72 -10.7         153.32
2012-Feb-11 06:01:16 1006.000 -7.1 74 -11.0         153.32
2012-Feb-11 07:01:18 1005.900 -7.6 76 -11.2         153.32
2012-Feb-11 08:01:14 1006.100 -7.4 78 -10.6         153.32
2012-Feb-11 09:01:13 1006.300 -6.4 75 -10.2         153.32
2012-Feb-11 10:01:16 1006.300 0.5 59 -6.6         153.32
2012-Feb-11 11:01:12 1006.400 5.5 32 -10.0         153.32
2012-Feb-11 12:01:14 1006.500 6.9 23 -13.0         153.32
2012-Feb-11 13:01:14 1005.900 8.6 19 -13.9         153.32
2012-Feb-11 14:01:12 1005.500 9.3 16 -15.8         153.32
2012-Feb-11 15:01:18 1005.400 8.4 15 -18.2         153.32
2012-Feb-11 16:01:14 1005.800 9.4 14 -17.4         153.32
2012-Feb-11 17:01:13 1006.200 7.9 15 -17.8 0.4 S     153.32
2012-Feb-11 18:01:15 1006.600 3.3 21 -17.1         153.32
2012-Feb-11 19:01:12 1007.200 1.2 23 -17.9         153.32
2012-Feb-11 20:01:19 1007.800 -1.2 28 -17.5         153.32
2012-Feb-11 21:01:17 1007.900 -3.5 36 -16.5         153.32
2012-Feb-11 22:01:11 1008.200 -4.7 40 -16.2         153.32
2012-Feb-11 23:01:17 1008.200 -5.9 47 -15.5         153.32

Temperatura Máxima:    Temperatura Mínima:-7°
Presión Máxima:1008.200 Hpa    Presión Mínima:1005.400 Hpa


Volver